sensor_id;sensor_type;location;lat;lon;timestamp;temperature;humidity
27226;DHT22;14732;51.074;3.788;2022-11-15T00:00:54;12.10;99.90
27226;DHT22;14732;51.074;3.788;2022-11-15T00:03:25;12.10;99.90
27226;DHT22;14732;51.074;3.788;2022-11-15T00:05:51;12.00;99.90
27226;DHT22;14732;51.074;3.788;2022-11-15T00:08:17;12.10;99.90
27226;DHT22;14732;51.074;3.788;2022-11-15T00:10:43;12.00;99.90
27226;DHT22;14732;51.074;3.788;2022-11-15T00:13:10;12.20;99.90
27226;DHT22;14732;51.074;3.788;2022-11-15T00:15:38;12.30;99.90
27226;DHT22;14732;51.074;3.788;2022-11-15T00:18:04;12.30;99.90
27226;DHT22;14732;51.074;3.788;2022-11-15T00:20:31;12.30;99.90
27226;DHT22;14732;51.074;3.788;2022-11-15T00:22:58;12.40;99.90
27226;DHT22;14732;51.074;3.788;2022-11-15T00:25:24;12.50;99.90
27226;DHT22;14732;51.074;3.788;2022-11-15T00:27:49;12.60;99.90
27226;DHT22;14732;51.074;3.788;2022-11-15T00:30:17;12.70;99.90
27226;DHT22;14732;51.074;3.788;2022-11-15T00:32:42;12.60;99.90
27226;DHT22;14732;51.074;3.788;2022-11-15T00:35:08;12.70;99.90
27226;DHT22;14732;51.074;3.788;2022-11-15T00:37:34;12.70;99.90
27226;DHT22;14732;51.074;3.788;2022-11-15T00:39:59;12.60;99.90
27226;DHT22;14732;51.074;3.788;2022-11-15T00:42:25;12.60;99.90
27226;DHT22;14732;51.074;3.788;2022-11-15T00:44:50;12.70;99.90
27226;DHT22;14732;51.074;3.788;2022-11-15T00:47:16;12.50;99.90
27226;DHT22;14732;51.074;3.788;2022-11-15T00:49:41;12.70;99.90
27226;DHT22;14732;51.074;3.788;2022-11-15T00:52:07;12.80;99.90
27226;DHT22;14732;51.074;3.788;2022-11-15T00:54:33;12.80;99.90
27226;DHT22;14732;51.074;3.788;2022-11-15T00:56:58;12.90;99.90
27226;DHT22;14732;51.074;3.788;2022-11-15T00:59:24;12.90;99.90
27226;DHT22;14732;51.074;3.788;2022-11-15T01:01:49;12.80;99.90
27226;DHT22;14732;51.074;3.788;2022-11-15T01:04:15;12.90;99.90
27226;DHT22;14732;51.074;3.788;2022-11-15T01:06:41;13.00;99.90
27226;DHT22;14732;51.074;3.788;2022-11-15T01:09:06;13.00;99.90
27226;DHT22;14732;51.074;3.788;2022-11-15T01:11:32;13.00;99.90
27226;DHT22;14732;51.074;3.788;2022-11-15T01:13:59;12.90;99.90
27226;DHT22;14732;51.074;3.788;2022-11-15T01:16:24;12.80;99.90
27226;DHT22;14732;51.074;3.788;2022-11-15T01:18:50;12.80;99.90
27226;DHT22;14732;51.074;3.788;2022-11-15T01:21:18;12.80;99.90
27226;DHT22;14732;51.074;3.788;2022-11-15T01:23:44;12.80;99.90
27226;DHT22;14732;51.074;3.788;2022-11-15T01:26:13;12.80;99.90
27226;DHT22;14732;51.074;3.788;2022-11-15T01:28:40;13.00;99.90
27226;DHT22;14732;51.074;3.788;2022-11-15T01:31:13;13.00;99.90
27226;DHT22;14732;51.074;3.788;2022-11-15T01:33:39;13.00;99.90
27226;DHT22;14732;51.074;3.788;2022-11-15T01:36:06;12.90;99.90
27226;DHT22;14732;51.074;3.788;2022-11-15T01:38:32;13.00;99.90
27226;DHT22;14732;51.074;3.788;2022-11-15T01:40:58;13.00;99.90
27226;DHT22;14732;51.074;3.788;2022-11-15T01:43:26;12.90;99.90
27226;DHT22;14732;51.074;3.788;2022-11-15T01:46:02;12.90;99.90
27226;DHT22;14732;51.074;3.788;2022-11-15T01:48:33;12.90;99.90
27226;DHT22;14732;51.074;3.788;2022-11-15T01:51:02;13.10;99.90
27226;DHT22;14732;51.074;3.788;2022-11-15T01:53:32;13.00;99.90
27226;DHT22;14732;51.074;3.788;2022-11-15T01:56:05;13.00;99.90
27226;DHT22;14732;51.074;3.788;2022-11-15T01:58:32;12.90;99.90
27226;DHT22;14732;51.074;3.788;2022-11-15T02:00:58;13.00;99.90
27226;DHT22;14732;51.074;3.788;2022-11-15T02:03:30;13.00;99.90
27226;DHT22;14732;51.074;3.788;2022-11-15T02:05:57;13.00;99.90
27226;DHT22;14732;51.074;3.788;2022-11-15T02:08:23;12.90;99.90
27226;DHT22;14732;51.074;3.788;2022-11-15T02:10:48;13.00;99.90
27226;DHT22;14732;51.074;3.788;2022-11-15T02:13:15;12.90;99.90
27226;DHT22;14732;51.074;3.788;2022-11-15T02:18:37;12.90;99.90
27226;DHT22;14732;51.074;3.788;2022-11-15T02:24:28;13.00;99.90
27226;DHT22;14732;51.074;3.788;2022-11-15T02:36:20;13.00;99.90
27226;DHT22;14732;51.074;3.788;2022-11-15T02:41:03;13.00;99.90
27226;DHT22;14732;51.074;3.788;2022-11-15T02:43:38;13.10;99.90
27226;DHT22;14732;51.074;3.788;2022-11-15T02:46:53;13.10;99.90
27226;DHT22;14732;51.074;3.788;2022-11-15T02:49:41;12.90;99.90
27226;DHT22;14732;51.074;3.788;2022-11-15T02:52:07;13.00;99.90
27226;DHT22;14732;51.074;3.788;2022-11-15T02:54:34;13.00;99.90
27226;DHT22;14732;51.074;3.788;2022-11-15T02:57:12;13.00;99.90
27226;DHT22;14732;51.074;3.788;2022-11-15T03:05:20;13.00;99.90
27226;DHT22;14732;51.074;3.788;2022-11-15T03:07:54;12.80;99.90
27226;DHT22;14732;51.074;3.788;2022-11-15T03:13:39;12.70;99.90
27226;DHT22;14732;51.074;3.788;2022-11-15T03:16:16;12.50;99.90
27226;DHT22;14732;51.074;3.788;2022-11-15T03:18:50;12.50;99.90
27226;DHT22;14732;51.074;3.788;2022-11-15T03:21:19;12.70;99.90
27226;DHT22;14732;51.074;3.788;2022-11-15T03:23:47;12.80;99.90
27226;DHT22;14732;51.074;3.788;2022-11-15T03:26:15;12.70;99.90
27226;DHT22;14732;51.074;3.788;2022-11-15T03:28:49;12.80;99.90
27226;DHT22;14732;51.074;3.788;2022-11-15T03:31:17;12.90;99.90
27226;DHT22;14732;51.074;3.788;2022-11-15T03:34:05;12.80;99.90
27226;DHT22;14732;51.074;3.788;2022-11-15T03:36:34;12.70;99.90
27226;DHT22;14732;51.074;3.788;2022-11-15T03:39:02;12.90;99.90
27226;DHT22;14732;51.074;3.788;2022-11-15T03:41:43;12.90;99.90
27226;DHT22;14732;51.074;3.788;2022-11-15T03:49:28;12.70;99.90
27226;DHT22;14732;51.074;3.788;2022-11-15T03:51:57;12.70;99.90
27226;DHT22;14732;51.074;3.788;2022-11-15T03:54:23;12.50;99.90
27226;DHT22;14732;51.074;3.788;2022-11-15T03:56:49;12.70;99.90
27226;DHT22;14732;51.074;3.788;2022-11-15T03:59:14;12.50;99.90
27226;DHT22;14732;51.074;3.788;2022-11-15T04:01:40;12.60;99.90
27226;DHT22;14732;51.074;3.788;2022-11-15T04:04:06;12.50;99.90
27226;DHT22;14732;51.074;3.788;2022-11-15T04:06:31;12.40;99.90
27226;DHT22;14732;51.074;3.788;2022-11-15T04:08:57;12.50;99.90
27226;DHT22;14732;51.074;3.788;2022-11-15T04:11:22;12.30;99.90
27226;DHT22;14732;51.074;3.788;2022-11-15T04:13:48;12.40;99.90
27226;DHT22;14732;51.074;3.788;2022-11-15T04:16:14;12.40;99.90
27226;DHT22;14732;51.074;3.788;2022-11-15T04:18:39;12.40;99.90
27226;DHT22;14732;51.074;3.788;2022-11-15T04:21:05;12.40;99.90
27226;DHT22;14732;51.074;3.788;2022-11-15T04:23:49;12.40;99.90
27226;DHT22;14732;51.074;3.788;2022-11-15T04:26:29;12.40;99.90
27226;DHT22;14732;51.074;3.788;2022-11-15T04:28:55;12.30;99.90
27226;DHT22;14732;51.074;3.788;2022-11-15T04:31:39;12.20;99.90
27226;DHT22;14732;51.074;3.788;2022-11-15T04:34:13;12.10;99.90
27226;DHT22;14732;51.074;3.788;2022-11-15T04:36:39;12.10;99.90
27226;DHT22;14732;51.074;3.788;2022-11-15T04:39:23;12.00;99.90
27226;DHT22;14732;51.074;3.788;2022-11-15T04:41:49;12.00;99.90
27226;DHT22;14732;51.074;3.788;2022-11-15T04:44:14;12.10;99.90
27226;DHT22;14732;51.074;3.788;2022-11-15T04:46:40;11.90;99.90
27226;DHT22;14732;51.074;3.788;2022-11-15T04:49:05;11.90;99.90
27226;DHT22;14732;51.074;3.788;2022-11-15T04:51:31;11.90;99.90
27226;DHT22;14732;51.074;3.788;2022-11-15T04:53:57;12.00;99.90
27226;DHT22;14732;51.074;3.788;2022-11-15T04:56:22;12.00;99.90
27226;DHT22;14732;51.074;3.788;2022-11-15T04:58:49;12.00;99.90
27226;DHT22;14732;51.074;3.788;2022-11-15T05:01:15;11.80;99.90
27226;DHT22;14732;51.074;3.788;2022-11-15T05:03:42;11.70;99.90
27226;DHT22;14732;51.074;3.788;2022-11-15T05:06:26;11.80;99.90
27226;DHT22;14732;51.074;3.788;2022-11-15T05:08:52;11.70;99.90
27226;DHT22;14732;51.074;3.788;2022-11-15T05:11:18;11.70;99.90
27226;DHT22;14732;51.074;3.788;2022-11-15T05:13:44;11.70;99.90
27226;DHT22;14732;51.074;3.788;2022-11-15T05:16:09;11.50;99.90
27226;DHT22;14732;51.074;3.788;2022-11-15T05:18:35;11.50;99.90
27226;DHT22;14732;51.074;3.788;2022-11-15T05:21:05;11.60;99.90
27226;DHT22;14732;51.074;3.788;2022-11-15T05:23:31;11.40;99.90
27226;DHT22;14732;51.074;3.788;2022-11-15T05:26:00;11.30;99.90
27226;DHT22;14732;51.074;3.788;2022-11-15T05:28:26;11.20;99.90
27226;DHT22;14732;51.074;3.788;2022-11-15T05:30:52;11.10;99.90
27226;DHT22;14732;51.074;3.788;2022-11-15T05:33:18;11.10;99.90
27226;DHT22;14732;51.074;3.788;2022-11-15T05:35:48;11.20;99.90
27226;DHT22;14732;51.074;3.788;2022-11-15T05:38:16;11.30;99.90
27226;DHT22;14732;51.074;3.788;2022-11-15T05:40:41;11.20;99.90
27226;DHT22;14732;51.074;3.788;2022-11-15T05:43:07;11.00;99.90
27226;DHT22;14732;51.074;3.788;2022-11-15T05:45:34;10.90;99.90
27226;DHT22;14732;51.074;3.788;2022-11-15T05:48:01;10.90;99.90
27226;DHT22;14732;51.074;3.788;2022-11-15T05:50:30;11.00;99.90
27226;DHT22;14732;51.074;3.788;2022-11-15T05:52:56;10.90;99.90
27226;DHT22;14732;51.074;3.788;2022-11-15T05:55:22;11.00;99.90
27226;DHT22;14732;51.074;3.788;2022-11-15T05:57:48;10.80;99.90
27226;DHT22;14732;51.074;3.788;2022-11-15T06:00:13;10.80;99.90
27226;DHT22;14732;51.074;3.788;2022-11-15T06:02:39;10.80;99.90
27226;DHT22;14732;51.074;3.788;2022-11-15T06:05:05;10.90;99.90
27226;DHT22;14732;51.074;3.788;2022-11-15T06:07:30;10.90;99.90
27226;DHT22;14732;51.074;3.788;2022-11-15T06:09:56;10.90;99.90
27226;DHT22;14732;51.074;3.788;2022-11-15T06:12:22;10.90;99.90
27226;DHT22;14732;51.074;3.788;2022-11-15T06:14:47;10.80;99.90
27226;DHT22;14732;51.074;3.788;2022-11-15T06:17:13;10.80;99.90
27226;DHT22;14732;51.074;3.788;2022-11-15T06:19:39;10.80;99.90
27226;DHT22;14732;51.074;3.788;2022-11-15T06:22:04;10.80;99.90
27226;DHT22;14732;51.074;3.788;2022-11-15T06:24:30;10.80;99.90
27226;DHT22;14732;51.074;3.788;2022-11-15T06:26:56;10.70;99.90
27226;DHT22;14732;51.074;3.788;2022-11-15T06:29:23;10.60;99.90
27226;DHT22;14732;51.074;3.788;2022-11-15T06:31:48;10.70;99.90
27226;DHT22;14732;51.074;3.788;2022-11-15T06:34:14;10.70;99.90
27226;DHT22;14732;51.074;3.788;2022-11-15T06:36:39;10.60;99.90
27226;DHT22;14732;51.074;3.788;2022-11-15T06:39:05;10.60;99.90
27226;DHT22;14732;51.074;3.788;2022-11-15T06:41:34;10.60;99.90
27226;DHT22;14732;51.074;3.788;2022-11-15T06:44:00;10.60;99.90
27226;DHT22;14732;51.074;3.788;2022-11-15T06:46:26;10.60;99.90
27226;DHT22;14732;51.074;3.788;2022-11-15T06:48:52;10.40;99.90
27226;DHT22;14732;51.074;3.788;2022-11-15T06:51:18;10.40;99.90
27226;DHT22;14732;51.074;3.788;2022-11-15T06:53:44;10.50;99.90
27226;DHT22;14732;51.074;3.788;2022-11-15T06:56:10;10.60;99.90
27226;DHT22;14732;51.074;3.788;2022-11-15T06:58:36;10.60;99.90
27226;DHT22;14732;51.074;3.788;2022-11-15T07:01:12;10.60;99.90
27226;DHT22;14732;51.074;3.788;2022-11-15T07:03:40;10.50;99.90
27226;DHT22;14732;51.074;3.788;2022-11-15T07:06:08;10.60;99.90
27226;DHT22;14732;51.074;3.788;2022-11-15T07:08:34;10.60;99.90
27226;DHT22;14732;51.074;3.788;2022-11-15T07:11:02;10.60;99.90
27226;DHT22;14732;51.074;3.788;2022-11-15T07:13:29;10.60;99.90
27226;DHT22;14732;51.074;3.788;2022-11-15T07:15:58;10.50;99.90
27226;DHT22;14732;51.074;3.788;2022-11-15T07:18:26;10.40;99.90
27226;DHT22;14732;51.074;3.788;2022-11-15T07:20:52;10.50;99.90
27226;DHT22;14732;51.074;3.788;2022-11-15T07:23:18;10.50;99.90
27226;DHT22;14732;51.074;3.788;2022-11-15T07:25:44;10.70;99.90
27226;DHT22;14732;51.074;3.788;2022-11-15T07:28:09;10.70;99.90
27226;DHT22;14732;51.074;3.788;2022-11-15T07:30:35;10.50;99.90
27226;DHT22;14732;51.074;3.788;2022-11-15T07:33:01;10.50;99.90
27226;DHT22;14732;51.074;3.788;2022-11-15T07:35:27;10.60;99.90
27226;DHT22;14732;51.074;3.788;2022-11-15T07:37:58;10.50;99.90
27226;DHT22;14732;51.074;3.788;2022-11-15T07:40:24;10.40;99.90
27226;DHT22;14732;51.074;3.788;2022-11-15T07:42:50;10.50;99.90
27226;DHT22;14732;51.074;3.788;2022-11-15T07:45:20;10.70;99.90
27226;DHT22;14732;51.074;3.788;2022-11-15T07:47:47;10.80;99.90
27226;DHT22;14732;51.074;3.788;2022-11-15T07:50:13;10.90;99.90
27226;DHT22;14732;51.074;3.788;2022-11-15T07:52:38;10.80;99.90
27226;DHT22;14732;51.074;3.788;2022-11-15T07:55:04;11.30;99.90
27226;DHT22;14732;51.074;3.788;2022-11-15T07:57:30;11.70;99.90
27226;DHT22;14732;51.074;3.788;2022-11-15T07:59:56;11.90;99.90
27226;DHT22;14732;51.074;3.788;2022-11-15T08:02:21;12.40;99.90
27226;DHT22;14732;51.074;3.788;2022-11-15T08:04:47;12.60;99.90
27226;DHT22;14732;51.074;3.788;2022-11-15T08:07:13;12.60;99.90
27226;DHT22;14732;51.074;3.788;2022-11-15T08:09:38;12.40;99.90
27226;DHT22;14732;51.074;3.788;2022-11-15T08:12:04;12.10;99.90
27226;DHT22;14732;51.074;3.788;2022-11-15T08:14:30;12.10;99.90
27226;DHT22;14732;51.074;3.788;2022-11-15T08:16:56;12.10;99.90
27226;DHT22;14732;51.074;3.788;2022-11-15T08:19:22;11.90;99.90
27226;DHT22;14732;51.074;3.788;2022-11-15T08:21:48;12.00;99.90
27226;DHT22;14732;51.074;3.788;2022-11-15T08:24:14;12.10;99.90
27226;DHT22;14732;51.074;3.788;2022-11-15T08:26:39;12.10;99.90
27226;DHT22;14732;51.074;3.788;2022-11-15T08:29:06;12.10;99.90
27226;DHT22;14732;51.074;3.788;2022-11-15T08:31:34;12.20;99.90
27226;DHT22;14732;51.074;3.788;2022-11-15T08:34:05;12.30;99.90
27226;DHT22;14732;51.074;3.788;2022-11-15T08:36:31;12.30;99.90
27226;DHT22;14732;51.074;3.788;2022-11-15T08:38:57;12.40;99.90
27226;DHT22;14732;51.074;3.788;2022-11-15T08:41:34;13.00;99.90
27226;DHT22;14732;51.074;3.788;2022-11-15T08:44:01;13.50;99.90
27226;DHT22;14732;51.074;3.788;2022-11-15T08:46:27;14.90;99.90
27226;DHT22;14732;51.074;3.788;2022-11-15T08:48:52;15.40;99.90
27226;DHT22;14732;51.074;3.788;2022-11-15T08:51:18;14.90;99.90
27226;DHT22;14732;51.074;3.788;2022-11-15T08:53:44;14.80;99.90
27226;DHT22;14732;51.074;3.788;2022-11-15T08:56:11;14.90;99.90
27226;DHT22;14732;51.074;3.788;2022-11-15T08:58:37;16.10;99.90
27226;DHT22;14732;51.074;3.788;2022-11-15T09:01:04;17.30;99.90
27226;DHT22;14732;51.074;3.788;2022-11-15T09:03:30;18.60;99.90
27226;DHT22;14732;51.074;3.788;2022-11-15T09:06:00;19.40;99.90
27226;DHT22;14732;51.074;3.788;2022-11-15T09:08:29;19.70;99.90
27226;DHT22;14732;51.074;3.788;2022-11-15T09:10:55;19.80;99.90
27226;DHT22;14732;51.074;3.788;2022-11-15T09:13:21;19.80;99.90
27226;DHT22;14732;51.074;3.788;2022-11-15T09:15:47;20.00;99.90
27226;DHT22;14732;51.074;3.788;2022-11-15T09:18:12;20.10;99.90
27226;DHT22;14732;51.074;3.788;2022-11-15T09:20:38;19.40;99.90
27226;DHT22;14732;51.074;3.788;2022-11-15T09:23:04;18.90;99.90
27226;DHT22;14732;51.074;3.788;2022-11-15T09:25:31;17.80;99.90
27226;DHT22;14732;51.074;3.788;2022-11-15T09:27:57;17.20;99.90
27226;DHT22;14732;51.074;3.788;2022-11-15T09:30:23;16.60;99.90
27226;DHT22;14732;51.074;3.788;2022-11-15T09:32:49;15.60;99.90
27226;DHT22;14732;51.074;3.788;2022-11-15T09:35:15;15.20;99.90
27226;DHT22;14732;51.074;3.788;2022-11-15T09:37:41;14.60;99.90
27226;DHT22;14732;51.074;3.788;2022-11-15T09:40:10;14.30;99.90
27226;DHT22;14732;51.074;3.788;2022-11-15T09:45:26;14.10;99.90
27226;DHT22;14732;51.074;3.788;2022-11-15T09:52:57;13.90;99.90
27226;DHT22;14732;51.074;3.788;2022-11-15T09:55:31;13.80;99.90
27226;DHT22;14732;51.074;3.788;2022-11-15T10:00:58;13.70;99.90
27226;DHT22;14732;51.074;3.788;2022-11-15T10:05:54;13.40;99.90
27226;DHT22;14732;51.074;3.788;2022-11-15T10:08:24;13.60;99.90
27226;DHT22;14732;51.074;3.788;2022-11-15T10:11:06;13.50;99.90
27226;DHT22;14732;51.074;3.788;2022-11-15T10:13:35;13.70;99.90
27226;DHT22;14732;51.074;3.788;2022-11-15T10:19:07;13.50;99.90
27226;DHT22;14732;51.074;3.788;2022-11-15T10:21:57;13.60;99.90
27226;DHT22;14732;51.074;3.788;2022-11-15T10:24:27;13.60;99.90
27226;DHT22;14732;51.074;3.788;2022-11-15T10:26:56;13.50;99.90
27226;DHT22;14732;51.074;3.788;2022-11-15T10:29:23;13.70;99.90
27226;DHT22;14732;51.074;3.788;2022-11-15T10:31:49;13.60;99.90
27226;DHT22;14732;51.074;3.788;2022-11-15T10:34:16;13.60;99.90
27226;DHT22;14732;51.074;3.788;2022-11-15T10:39:20;13.40;99.90
27226;DHT22;14732;51.074;3.788;2022-11-15T10:41:46;13.50;99.90
27226;DHT22;14732;51.074;3.788;2022-11-15T10:44:19;13.60;99.90
27226;DHT22;14732;51.074;3.788;2022-11-15T10:46:47;13.50;99.90
27226;DHT22;14732;51.074;3.788;2022-11-15T10:49:21;13.40;99.90
27226;DHT22;14732;51.074;3.788;2022-11-15T10:51:55;13.60;99.90
27226;DHT22;14732;51.074;3.788;2022-11-15T10:54:37;13.80;99.90
27226;DHT22;14732;51.074;3.788;2022-11-15T10:57:18;14.10;99.90
27226;DHT22;14732;51.074;3.788;2022-11-15T10:59:47;14.20;99.90
27226;DHT22;14732;51.074;3.788;2022-11-15T11:02:32;14.40;99.90
27226;DHT22;14732;51.074;3.788;2022-11-15T11:04:59;14.20;99.90
27226;DHT22;14732;51.074;3.788;2022-11-15T11:07:28;14.30;99.90
27226;DHT22;14732;51.074;3.788;2022-11-15T11:12:29;14.20;99.90
27226;DHT22;14732;51.074;3.788;2022-11-15T11:14:57;14.20;99.90
27226;DHT22;14732;51.074;3.788;2022-11-15T11:17:43;14.20;99.90
27226;DHT22;14732;51.074;3.788;2022-11-15T11:20:46;14.20;99.90
27226;DHT22;14732;51.074;3.788;2022-11-15T11:26:04;14.30;99.90
27226;DHT22;14732;51.074;3.788;2022-11-15T11:31:34;14.30;99.90
27226;DHT22;14732;51.074;3.788;2022-11-15T11:39:46;14.70;99.90
27226;DHT22;14732;51.074;3.788;2022-11-15T11:47:39;14.60;99.90
27226;DHT22;14732;51.074;3.788;2022-11-15T11:52:49;14.70;99.90
27226;DHT22;14732;51.074;3.788;2022-11-15T11:55:26;14.80;99.90
27226;DHT22;14732;51.074;3.788;2022-11-15T11:58:06;14.80;99.90
27226;DHT22;14732;51.074;3.788;2022-11-15T12:00:40;14.70;99.90
27226;DHT22;14732;51.074;3.788;2022-11-15T12:03:38;14.70;99.90
27226;DHT22;14732;51.074;3.788;2022-11-15T12:11:54;14.60;99.90
27226;DHT22;14732;51.074;3.788;2022-11-15T12:16:49;14.50;99.90
27226;DHT22;14732;51.074;3.788;2022-11-15T12:19:15;14.40;99.90
27226;DHT22;14732;51.074;3.788;2022-11-15T12:21:50;14.40;99.90
27226;DHT22;14732;51.074;3.788;2022-11-15T12:24:37;14.40;99.90
27226;DHT22;14732;51.074;3.788;2022-11-15T12:29:42;14.50;99.90
27226;DHT22;14732;51.074;3.788;2022-11-15T12:32:36;14.30;99.90
27226;DHT22;14732;51.074;3.788;2022-11-15T12:35:26;14.30;99.90
27226;DHT22;14732;51.074;3.788;2022-11-15T12:37:55;14.30;99.90
27226;DHT22;14732;51.074;3.788;2022-11-15T12:41:15;14.50;99.90
27226;DHT22;14732;51.074;3.788;2022-11-15T12:43:43;14.50;99.90
27226;DHT22;14732;51.074;3.788;2022-11-15T12:49:00;14.70;99.90
27226;DHT22;14732;51.074;3.788;2022-11-15T13:17:50;14.60;99.90
27226;DHT22;14732;51.074;3.788;2022-11-15T13:33:17;14.40;99.90
27226;DHT22;14732;51.074;3.788;2022-11-15T13:35:46;14.30;99.90
27226;DHT22;14732;51.074;3.788;2022-11-15T13:38:42;14.50;99.90
27226;DHT22;14732;51.074;3.788;2022-11-15T13:41:19;14.40;99.90
27226;DHT22;14732;51.074;3.788;2022-11-15T13:43:46;14.40;99.90
27226;DHT22;14732;51.074;3.788;2022-11-15T13:46:16;14.40;99.90
27226;DHT22;14732;51.074;3.788;2022-11-15T13:48:43;14.30;99.90
27226;DHT22;14732;51.074;3.788;2022-11-15T13:51:35;14.10;99.90
27226;DHT22;14732;51.074;3.788;2022-11-15T13:54:28;14.00;99.90
27226;DHT22;14732;51.074;3.788;2022-11-15T13:57:09;14.10;99.90
27226;DHT22;14732;51.074;3.788;2022-11-15T13:59:44;14.20;99.90
27226;DHT22;14732;51.074;3.788;2022-11-15T14:02:17;14.50;99.90
27226;DHT22;14732;51.074;3.788;2022-11-15T14:04:53;14.50;99.90
27226;DHT22;14732;51.074;3.788;2022-11-15T14:07:21;14.40;99.90
27226;DHT22;14732;51.074;3.788;2022-11-15T14:09:48;14.20;99.90
27226;DHT22;14732;51.074;3.788;2022-11-15T14:12:49;14.40;99.90
27226;DHT22;14732;51.074;3.788;2022-11-15T14:15:31;14.20;99.90
27226;DHT22;14732;51.074;3.788;2022-11-15T14:17:58;14.30;99.90
27226;DHT22;14732;51.074;3.788;2022-11-15T14:20:37;14.40;99.90
27226;DHT22;14732;51.074;3.788;2022-11-15T14:25:34;14.50;99.90
27226;DHT22;14732;51.074;3.788;2022-11-15T14:30:42;14.40;99.90
27226;DHT22;14732;51.074;3.788;2022-11-15T14:33:27;14.20;99.90
27226;DHT22;14732;51.074;3.788;2022-11-15T14:35:55;14.00;99.90
27226;DHT22;14732;51.074;3.788;2022-11-15T14:38:25;14.10;99.90
27226;DHT22;14732;51.074;3.788;2022-11-15T14:40:51;14.10;99.90
27226;DHT22;14732;51.074;3.788;2022-11-15T14:43:17;14.00;99.90
27226;DHT22;14732;51.074;3.788;2022-11-15T14:45:43;13.90;99.90
27226;DHT22;14732;51.074;3.788;2022-11-15T14:48:08;14.00;99.90
27226;DHT22;14732;51.074;3.788;2022-11-15T14:50:35;14.00;99.90
27226;DHT22;14732;51.074;3.788;2022-11-15T14:53:01;13.90;99.90
27226;DHT22;14732;51.074;3.788;2022-11-15T14:55:32;13.90;99.90
27226;DHT22;14732;51.074;3.788;2022-11-15T14:58:00;13.90;99.90
27226;DHT22;14732;51.074;3.788;2022-11-15T15:00:28;13.80;99.90
27226;DHT22;14732;51.074;3.788;2022-11-15T15:02:55;13.80;99.90
27226;DHT22;14732;51.074;3.788;2022-11-15T15:07:57;13.40;99.90
27226;DHT22;14732;51.074;3.788;2022-11-15T15:10:25;13.40;99.90
27226;DHT22;14732;51.074;3.788;2022-11-15T15:12:51;13.30;99.90
27226;DHT22;14732;51.074;3.788;2022-11-15T15:15:24;13.20;99.90
27226;DHT22;14732;51.074;3.788;2022-11-15T15:17:50;13.30;99.90
27226;DHT22;14732;51.074;3.788;2022-11-15T15:20:16;13.40;99.90
27226;DHT22;14732;51.074;3.788;2022-11-15T15:22:41;13.30;99.90
27226;DHT22;14732;51.074;3.788;2022-11-15T15:25:34;13.30;99.90
27226;DHT22;14732;51.074;3.788;2022-11-15T15:28:01;13.30;99.90
27226;DHT22;14732;51.074;3.788;2022-11-15T15:30:28;13.20;99.90
27226;DHT22;14732;51.074;3.788;2022-11-15T15:32:54;13.20;99.90
27226;DHT22;14732;51.074;3.788;2022-11-15T15:35:20;13.30;99.90
27226;DHT22;14732;51.074;3.788;2022-11-15T15:37:47;13.20;99.90
27226;DHT22;14732;51.074;3.788;2022-11-15T15:40:21;13.30;99.90
27226;DHT22;14732;51.074;3.788;2022-11-15T15:42:48;13.30;99.90
27226;DHT22;14732;51.074;3.788;2022-11-15T15:45:14;13.30;99.90
27226;DHT22;14732;51.074;3.788;2022-11-15T15:47:40;13.40;99.90
27226;DHT22;14732;51.074;3.788;2022-11-15T15:50:24;13.30;99.90
27226;DHT22;14732;51.074;3.788;2022-11-15T15:52:51;13.20;99.90
27226;DHT22;14732;51.074;3.788;2022-11-15T15:55:17;13.20;99.90
27226;DHT22;14732;51.074;3.788;2022-11-15T15:57:43;13.30;99.90
27226;DHT22;14732;51.074;3.788;2022-11-15T16:00:10;13.30;99.90
27226;DHT22;14732;51.074;3.788;2022-11-15T16:02:35;13.30;99.90
27226;DHT22;14732;51.074;3.788;2022-11-15T16:05:01;13.30;99.90
27226;DHT22;14732;51.074;3.788;2022-11-15T16:07:27;13.40;99.90
27226;DHT22;14732;51.074;3.788;2022-11-15T16:09:55;13.40;99.90
27226;DHT22;14732;51.074;3.788;2022-11-15T16:12:34;13.40;99.90
27226;DHT22;14732;51.074;3.788;2022-11-15T16:15:01;13.30;99.90
27226;DHT22;14732;51.074;3.788;2022-11-15T16:17:32;13.30;99.90
27226;DHT22;14732;51.074;3.788;2022-11-15T16:19:59;13.30;99.90
27226;DHT22;14732;51.074;3.788;2022-11-15T16:22:24;13.30;99.90
27226;DHT22;14732;51.074;3.788;2022-11-15T16:24:50;13.30;99.90
27226;DHT22;14732;51.074;3.788;2022-11-15T16:27:18;13.40;99.90
27226;DHT22;14732;51.074;3.788;2022-11-15T16:29:44;13.30;99.90
27226;DHT22;14732;51.074;3.788;2022-11-15T16:32:10;13.30;99.90
27226;DHT22;14732;51.074;3.788;2022-11-15T16:34:36;13.30;99.90
27226;DHT22;14732;51.074;3.788;2022-11-15T16:37:01;13.40;99.90
27226;DHT22;14732;51.074;3.788;2022-11-15T16:39:27;13.50;99.90
27226;DHT22;14732;51.074;3.788;2022-11-15T16:41:56;13.60;99.90
27226;DHT22;14732;51.074;3.788;2022-11-15T16:44:22;13.60;99.90
27226;DHT22;14732;51.074;3.788;2022-11-15T16:46:49;13.60;99.90
27226;DHT22;14732;51.074;3.788;2022-11-15T16:49:20;13.70;99.90
27226;DHT22;14732;51.074;3.788;2022-11-15T16:51:47;13.60;99.90
27226;DHT22;14732;51.074;3.788;2022-11-15T16:54:13;13.60;99.90
27226;DHT22;14732;51.074;3.788;2022-11-15T16:56:40;13.50;99.90
27226;DHT22;14732;51.074;3.788;2022-11-15T16:59:06;13.40;99.90
27226;DHT22;14732;51.074;3.788;2022-11-15T17:01:36;13.50;99.90
27226;DHT22;14732;51.074;3.788;2022-11-15T17:04:11;13.50;99.90
27226;DHT22;14732;51.074;3.788;2022-11-15T17:06:41;13.40;99.90
27226;DHT22;14732;51.074;3.788;2022-11-15T17:09:20;13.40;99.90
27226;DHT22;14732;51.074;3.788;2022-11-15T17:11:49;13.50;99.90
27226;DHT22;14732;51.074;3.788;2022-11-15T17:14:15;13.50;99.90
27226;DHT22;14732;51.074;3.788;2022-11-15T17:16:41;13.50;99.90
27226;DHT22;14732;51.074;3.788;2022-11-15T17:19:19;13.40;99.90
27226;DHT22;14732;51.074;3.788;2022-11-15T17:21:46;13.60;99.90
27226;DHT22;14732;51.074;3.788;2022-11-15T17:24:14;13.70;99.90
27226;DHT22;14732;51.074;3.788;2022-11-15T17:26:39;13.70;99.90
27226;DHT22;14732;51.074;3.788;2022-11-15T17:29:07;13.70;99.90
27226;DHT22;14732;51.074;3.788;2022-11-15T17:31:34;13.70;99.90
27226;DHT22;14732;51.074;3.788;2022-11-15T17:34:02;13.70;99.90
27226;DHT22;14732;51.074;3.788;2022-11-15T17:36:28;13.60;99.90
27226;DHT22;14732;51.074;3.788;2022-11-15T17:38:53;13.50;99.90
27226;DHT22;14732;51.074;3.788;2022-11-15T17:41:19;13.50;99.90
27226;DHT22;14732;51.074;3.788;2022-11-15T17:43:48;13.30;99.90
27226;DHT22;14732;51.074;3.788;2022-11-15T17:46:18;13.30;99.90
27226;DHT22;14732;51.074;3.788;2022-11-15T17:48:45;13.20;99.90
27226;DHT22;14732;51.074;3.788;2022-11-15T17:51:14;13.30;99.90
27226;DHT22;14732;51.074;3.788;2022-11-15T17:53:41;13.50;99.90
27226;DHT22;14732;51.074;3.788;2022-11-15T17:56:19;13.30;99.90